createdAt,value
2017-08-10T00:00:28.357Z,0
2017-08-10T00:01:28.449Z,0
2017-08-10T00:02:28.348Z,0
2017-08-10T00:03:28.525Z,0
2017-08-10T00:04:28.345Z,0
2017-08-10T00:05:28.338Z,0
2017-08-10T00:06:28.340Z,0
2017-08-10T00:07:28.025Z,0
2017-08-10T00:08:28.328Z,0
2017-08-10T00:09:28.529Z,0
2017-08-10T00:10:28.019Z,0
2017-08-10T00:11:28.432Z,0
2017-08-10T00:12:28.011Z,0
2017-08-10T00:13:28.311Z,0
2017-08-10T00:14:28.581Z,0
2017-08-10T00:15:28.002Z,0
2017-08-10T00:16:28.099Z,0
2017-08-10T00:17:28.397Z,0
2017-08-10T00:18:27.985Z,0
2017-08-10T00:19:28.293Z,0
2017-08-10T00:20:28.390Z,0
2017-08-10T00:21:28.379Z,0
2017-08-10T00:22:27.973Z,0
2017-08-10T00:23:28.287Z,0
2017-08-10T00:24:28.414Z,0
2017-08-10T00:25:28.369Z,0
2017-08-10T00:26:28.284Z,0
2017-08-10T00:27:28.270Z,0
2017-08-10T00:28:27.958Z,0
2017-08-10T00:29:28.361Z,0
2017-08-10T00:30:27.953Z,0
2017-08-10T00:31:28.357Z,0
2017-08-10T00:32:27.945Z,0
2017-08-10T00:33:28.044Z,0
2017-08-10T00:34:28.349Z,0
2017-08-10T00:35:28.444Z,0
2017-08-10T00:36:28.237Z,0
2017-08-10T00:37:28.225Z,0
2017-08-10T00:38:28.234Z,0
2017-08-10T00:39:28.432Z,0
2017-08-10T00:40:28.222Z,0
2017-08-10T00:41:28.327Z,0
2017-08-10T00:42:28.219Z,0
2017-08-10T00:43:27.912Z,0
2017-08-10T00:44:28.200Z,0
2017-08-10T00:45:28.304Z,0
2017-08-10T00:46:28.206Z,0
2017-08-10T00:47:28.195Z,0
2017-08-10T00:48:28.296Z,0
2017-08-10T00:49:28.188Z,0
2017-08-10T00:50:28.188Z,0
2017-08-10T00:51:28.192Z,0
2017-08-10T00:52:28.287Z,0
2017-08-10T00:53:28.175Z,0
2017-08-10T00:54:28.281Z,0
2017-08-10T00:55:28.177Z,0
2017-08-10T00:56:28.271Z,0
2017-08-10T00:57:27.860Z,0
2017-08-10T00:58:27.956Z,0
2017-08-10T00:59:28.158Z,0
2017-08-10T01:00:28.149Z,0
2017-08-10T01:01:28.153Z,0
2017-08-10T01:02:27.841Z,0
2017-08-10T01:03:28.140Z,0
2017-08-10T01:04:28.138Z,0
2017-08-10T01:05:28.239Z,0
2017-08-10T01:06:28.161Z,0
2017-08-10T01:07:28.144Z,0
2017-08-10T01:08:28.379Z,0
2017-08-10T01:09:28.133Z,0
2017-08-10T01:10:28.229Z,0
2017-08-10T01:11:28.218Z,0
2017-08-10T01:12:28.140Z,0
2017-08-10T01:13:28.113Z,0
2017-08-10T01:14:27.498Z,0
2017-08-10T01:15:28.199Z,0
2017-08-10T01:16:28.102Z,0
2017-08-10T01:17:27.895Z,0
2017-08-10T01:18:27.790Z,0
2017-08-10T01:19:28.094Z,0
2017-08-10T01:20:28.410Z,0
2017-08-10T01:21:28.086Z,0
2017-08-10T01:22:28.076Z,0
2017-08-10T01:23:28.078Z,0
2017-08-10T01:24:27.874Z,0
2017-08-10T01:25:27.761Z,0
2017-08-10T01:26:28.083Z,0
2017-08-10T01:27:28.067Z,0
2017-08-10T01:28:28.221Z,0
2017-08-10T01:29:28.062Z,0
2017-08-10T01:30:27.762Z,0
2017-08-10T01:31:28.046Z,0
2017-08-10T01:32:28.142Z,0
2017-08-10T01:33:28.065Z,0
2017-08-10T01:34:27.580Z,0
2017-08-10T01:35:28.033Z,0
2017-08-10T01:36:28.034Z,0
2017-08-10T01:37:27.107Z,0
2017-08-10T01:38:27.815Z,0
2017-08-10T01:39:28.025Z,0
2017-08-10T01:40:27.730Z,0
2017-08-10T01:41:27.721Z,0
2017-08-10T01:42:28.019Z,0
2017-08-10T01:43:27.802Z,0
2017-08-10T01:44:27.395Z,0
2017-08-10T01:45:28.134Z,0
2017-08-10T01:46:28.004Z,0
2017-08-10T01:47:27.794Z,0
2017-08-10T01:48:27.693Z,0
2017-08-10T01:49:27.987Z,0
2017-08-10T01:50:27.989Z,0
2017-08-10T01:51:27.988Z,0
2017-08-10T01:52:27.987Z,0
2017-08-10T01:53:27.983Z,0
2017-08-10T01:54:27.972Z,0
2017-08-10T01:55:27.971Z,0
2017-08-10T01:56:27.970Z,0
2017-08-10T01:57:27.960Z,0
2017-08-10T01:58:28.212Z,0
2017-08-10T01:59:27.965Z,0
2017-08-10T02:00:27.653Z,0
2017-08-10T02:01:28.088Z,0
2017-08-10T02:02:27.959Z,0
2017-08-10T02:03:27.955Z,0
2017-08-10T02:04:28.092Z,0
2017-08-10T02:05:27.634Z,0
2017-08-10T02:06:27.938Z,0
2017-08-10T02:07:27.620Z,0
2017-08-10T02:08:27.921Z,0
2017-08-10T02:09:27.927Z,0
2017-08-10T02:10:27.924Z,0
2017-08-10T02:11:27.921Z,0
2017-08-10T02:12:27.912Z,0
2017-08-10T02:13:27.919Z,0
2017-08-10T02:14:27.910Z,0
2017-08-10T02:15:28.055Z,0
2017-08-10T02:16:27.893Z,0
2017-08-10T02:17:27.280Z,0
2017-08-10T02:18:27.939Z,0
2017-08-10T02:19:27.887Z,0
2017-08-10T02:20:28.030Z,0
2017-08-10T02:21:27.879Z,0
2017-08-10T02:22:27.370Z,0
2017-08-10T02:23:27.884Z,0
2017-08-10T02:24:27.873Z,0
2017-08-10T02:25:28.013Z,0
2017-08-10T02:26:27.863Z,0
2017-08-10T02:27:27.858Z,0
2017-08-10T02:28:27.854Z,0
2017-08-10T02:29:27.866Z,0
2017-08-10T02:30:27.858Z,0
2017-08-10T02:31:27.955Z,0
2017-08-10T02:32:27.550Z,0
2017-08-10T02:33:27.557Z,0
2017-08-10T02:34:27.832Z,0
2017-08-10T02:35:27.535Z,0
2017-08-10T02:36:27.568Z,0
2017-08-10T02:37:27.836Z,0
2017-08-10T02:38:27.818Z,0
2017-08-10T02:39:27.833Z,0
2017-08-10T02:40:27.661Z,0
2017-08-10T02:41:27.509Z,0
2017-08-10T02:42:27.917Z,0
2017-08-10T02:43:27.807Z,0
2017-08-10T02:44:27.798Z,0
2017-08-10T02:45:28.050Z,0
2017-08-10T02:46:27.803Z,0
2017-08-10T02:47:27.797Z,0
2017-08-10T02:48:27.790Z,0
2017-08-10T02:49:27.789Z,0
2017-08-10T02:50:27.483Z,0
2017-08-10T02:51:27.261Z,0
2017-08-10T02:52:27.564Z,0
2017-08-10T02:53:27.467Z,0
2017-08-10T02:54:26.850Z,0
2017-08-10T02:55:27.461Z,0
2017-08-10T02:56:27.866Z,0
2017-08-10T02:57:27.457Z,0
2017-08-10T02:58:27.701Z,0
2017-08-10T02:59:27.452Z,0
2017-08-10T03:00:27.445Z,0
2017-08-10T03:01:27.126Z,0
2017-08-10T03:02:27.536Z,0
2017-08-10T03:03:27.837Z,0
2017-08-10T03:04:27.139Z,0
2017-08-10T03:05:27.747Z,0
2017-08-10T03:06:27.728Z,0
2017-08-10T03:07:26.801Z,0
2017-08-10T03:08:27.408Z,0
2017-08-10T03:09:27.890Z,0
2017-08-10T03:10:27.864Z,0
2017-08-10T03:11:27.398Z,0
2017-08-10T03:12:27.409Z,0
2017-08-10T03:13:27.807Z,0
2017-08-10T03:14:27.084Z,0
2017-08-10T03:15:27.387Z,0
2017-08-10T03:16:27.182Z,0
2017-08-10T03:17:27.381Z,0
2017-08-10T03:18:27.695Z,0
2017-08-10T03:19:27.681Z,0
2017-08-10T03:20:27.375Z,0
2017-08-10T03:21:27.672Z,0
2017-08-10T03:22:27.772Z,0
2017-08-10T03:23:27.668Z,0
2017-08-10T03:24:27.359Z,0
2017-08-10T03:25:27.501Z,0
2017-08-10T03:26:27.352Z,0
2017-08-10T03:27:27.657Z,0
2017-08-10T03:28:27.340Z,0
2017-08-10T03:29:27.339Z,0
2017-08-10T03:30:27.346Z,0
2017-08-10T03:31:27.659Z,0
2017-08-10T03:32:27.741Z,0
2017-08-10T03:33:27.337Z,0
2017-08-10T03:34:27.744Z,0
2017-08-10T03:35:27.655Z,0
2017-08-10T03:36:27.628Z,0
2017-08-10T03:37:27.417Z,0
2017-08-10T03:38:27.617Z,0
2017-08-10T03:39:27.614Z,0
2017-08-10T03:40:27.612Z,0
2017-08-10T03:41:27.605Z,0
2017-08-10T03:42:27.760Z,0
2017-08-10T03:43:27.598Z,0
2017-08-10T03:44:27.283Z,0
2017-08-10T03:45:27.594Z,0
2017-08-10T03:46:27.690Z,0
2017-08-10T03:47:27.585Z,0
2017-08-10T03:48:27.579Z,0
2017-08-10T03:49:27.377Z,0
2017-08-10T03:50:27.262Z,0
2017-08-10T03:51:27.729Z,0
2017-08-10T03:52:27.574Z,0
2017-08-10T03:53:27.258Z,0
2017-08-10T03:54:27.555Z,0
2017-08-10T03:55:27.355Z,0
2017-08-10T03:56:27.370Z,0
2017-08-10T03:57:27.553Z,0
2017-08-10T03:58:27.253Z,0
2017-08-10T03:59:27.543Z,0
2017-08-10T04:00:26.925Z,0
2017-08-10T04:01:27.688Z,0
2017-08-10T04:02:27.531Z,0
2017-08-10T04:03:27.534Z,0
2017-08-10T04:04:27.528Z,0
2017-08-10T04:05:27.212Z,0
2017-08-10T04:06:27.058Z,0
2017-08-10T04:07:27.515Z,0
2017-08-10T04:08:26.892Z,0
2017-08-10T04:09:27.203Z,0
2017-08-10T04:10:26.990Z,0
2017-08-10T04:11:27.311Z,0
2017-08-10T04:12:27.502Z,0
2017-08-10T04:13:27.494Z,0
2017-08-10T04:14:27.593Z,0
2017-08-10T04:15:26.973Z,0
2017-08-10T04:16:27.179Z,0
2017-08-10T04:17:26.862Z,0
2017-08-10T04:18:27.477Z,0
2017-08-10T04:19:26.974Z,0
2017-08-10T04:20:27.467Z,0
2017-08-10T04:21:27.669Z,0
2017-08-10T04:22:27.466Z,0
2017-08-10T04:23:27.456Z,0
2017-08-10T04:24:26.847Z,0
2017-08-10T04:25:27.553Z,0
2017-08-10T04:26:27.456Z,0
2017-08-10T04:27:27.238Z,0
2017-08-10T04:28:27.444Z,0
2017-08-10T04:29:27.133Z,0
2017-08-10T04:30:27.440Z,0
2017-08-10T04:31:27.536Z,0
2017-08-10T04:32:27.428Z,0
2017-08-10T04:33:27.526Z,0
2017-08-10T04:34:27.421Z,0
2017-08-10T04:35:27.416Z,0
2017-08-10T04:36:27.416Z,0
2017-08-10T04:37:27.408Z,0
2017-08-10T04:38:27.097Z,0
2017-08-10T04:39:27.501Z,0
2017-08-10T04:40:27.091Z,0
2017-08-10T04:41:27.399Z,0
2017-08-10T04:42:27.085Z,0
2017-08-10T04:43:27.390Z,0
2017-08-10T04:44:27.089Z,0
2017-08-10T04:45:27.383Z,0
2017-08-10T04:46:27.378Z,0
2017-08-10T04:47:27.379Z,0
2017-08-10T04:48:27.369Z,0
2017-08-10T04:49:27.368Z,0
2017-08-10T04:50:27.370Z,0
2017-08-10T04:51:27.355Z,0
2017-08-10T04:52:27.054Z,0
2017-08-10T04:53:27.044Z,0
2017-08-10T04:54:27.350Z,0
2017-08-10T04:55:27.351Z,0
2017-08-10T04:56:27.045Z,0
2017-08-10T04:57:27.343Z,0
2017-08-10T04:58:27.371Z,0
2017-08-10T04:59:27.341Z,0
2017-08-10T05:00:27.448Z,0
2017-08-10T05:01:27.346Z,0
2017-08-10T05:02:27.326Z,0
2017-08-10T05:03:27.160Z,0
2017-08-10T05:04:27.415Z,0
2017-08-10T05:05:27.441Z,0
2017-08-10T05:06:27.309Z,0
2017-08-10T05:07:27.303Z,0
2017-08-10T05:08:27.317Z,0
2017-08-10T05:09:27.298Z,0
2017-08-10T05:10:27.444Z,0
2017-08-10T05:11:26.675Z,0
2017-08-10T05:12:27.289Z,0
2017-08-10T05:13:26.985Z,0
2017-08-10T05:14:27.282Z,0
2017-08-10T05:15:27.274Z,0
2017-08-10T05:16:27.240Z,0
2017-08-10T05:17:27.267Z,0
2017-08-10T05:18:26.960Z,0
2017-08-10T05:19:26.959Z,0
2017-08-10T05:20:27.260Z,5
2017-08-10T05:21:26.953Z,5
2017-08-10T05:22:27.406Z,5
2017-08-10T05:23:27.247Z,5
2017-08-10T05:24:27.251Z,5
2017-08-10T05:25:27.239Z,5
2017-08-10T05:26:26.632Z,5
2017-08-10T05:27:27.348Z,5
2017-08-10T05:28:27.326Z,5
2017-08-10T05:29:27.224Z,5
2017-08-10T05:30:26.927Z,5
2017-08-10T05:31:26.604Z,5
2017-08-10T05:32:27.059Z,5
2017-08-10T05:33:26.917Z,5
2017-08-10T05:34:26.910Z,5
2017-08-10T05:35:27.212Z,5
2017-08-10T05:36:26.899Z,5
2017-08-10T05:37:27.352Z,5
2017-08-10T05:38:27.192Z,5
2017-08-10T05:39:26.884Z,5
2017-08-10T05:40:27.194Z,5
2017-08-10T05:41:26.678Z,10
2017-08-10T05:42:26.982Z,5
2017-08-10T05:43:27.182Z,5
2017-08-10T05:44:27.179Z,5
2017-08-10T05:45:27.171Z,5
2017-08-10T05:46:27.271Z,5
2017-08-10T05:47:27.363Z,10
2017-08-10T05:48:27.261Z,10
2017-08-10T05:49:27.159Z,10
2017-08-10T05:50:27.158Z,10
2017-08-10T05:51:27.150Z,10
2017-08-10T05:52:27.242Z,10
2017-08-10T05:53:27.141Z,10
2017-08-10T05:54:27.240Z,5
2017-08-10T05:55:27.135Z,5
2017-08-10T05:56:27.130Z,5
2017-08-10T05:57:27.126Z,5
2017-08-10T05:58:27.125Z,10
2017-08-10T05:59:27.128Z,10
2017-08-10T06:00:27.119Z,5
2017-08-10T06:01:27.123Z,5
2017-08-10T06:02:27.213Z,5
2017-08-10T06:03:27.208Z,5
2017-08-10T06:04:27.106Z,5
2017-08-10T06:05:27.214Z,5
2017-08-10T06:06:27.097Z,5
2017-08-10T06:07:27.094Z,10
2017-08-10T06:08:27.197Z,10
2017-08-10T06:09:27.082Z,10
2017-08-10T06:10:27.083Z,5
2017-08-10T06:11:27.087Z,5
2017-08-10T06:12:27.082Z,5
2017-08-10T06:13:26.868Z,5
2017-08-10T06:14:27.101Z,5
2017-08-10T06:15:27.065Z,5
2017-08-10T06:16:27.063Z,5
2017-08-10T06:17:27.070Z,5
2017-08-10T06:18:27.050Z,5
2017-08-10T06:19:26.747Z,5
2017-08-10T06:20:27.046Z,5
2017-08-10T06:21:27.045Z,5
2017-08-10T06:22:27.047Z,5
2017-08-10T06:23:27.042Z,5
2017-08-10T06:24:27.041Z,5
2017-08-10T06:25:27.135Z,5
2017-08-10T06:26:27.029Z,5
2017-08-10T06:27:26.411Z,5
2017-08-10T06:28:27.015Z,5
2017-08-10T06:29:27.025Z,5
2017-08-10T06:30:27.021Z,5
2017-08-10T06:31:27.009Z,5
2017-08-10T06:32:27.006Z,5
2017-08-10T06:33:27.003Z,5
2017-08-10T06:34:27.246Z,10
2017-08-10T06:35:26.994Z,10
2017-08-10T06:36:27.089Z,10
2017-08-10T06:37:27.004Z,10
2017-08-10T06:38:26.689Z,10
2017-08-10T06:39:26.981Z,10
2017-08-10T06:40:26.984Z,5
2017-08-10T06:41:27.078Z,5
2017-08-10T06:42:27.122Z,5
2017-08-10T06:43:26.964Z,5
2017-08-10T06:44:26.966Z,5
2017-08-10T06:45:26.967Z,5
2017-08-10T06:46:26.956Z,5
2017-08-10T06:47:27.068Z,5
2017-08-10T06:48:27.094Z,5
2017-08-10T06:49:26.951Z,5
2017-08-10T06:50:26.968Z,5
2017-08-10T06:51:26.940Z,5
2017-08-10T06:52:26.627Z,5
2017-08-10T06:53:26.623Z,5
2017-08-10T06:54:26.720Z,5
2017-08-10T06:55:26.615Z,5
2017-08-10T06:56:26.623Z,5
2017-08-10T06:57:27.013Z,5
2017-08-10T06:58:26.917Z,5
2017-08-10T06:59:27.012Z,5
2017-08-10T07:00:26.912Z,5
2017-08-10T07:01:26.899Z,5
2017-08-10T07:02:26.898Z,5
2017-08-10T07:03:26.897Z,5
2017-08-10T07:04:26.586Z,5
2017-08-10T07:05:27.111Z,5
2017-08-10T07:06:26.574Z,5
2017-08-10T07:07:26.895Z,10
2017-08-10T07:08:26.577Z,5
2017-08-10T07:09:26.873Z,5
2017-08-10T07:10:26.559Z,5
2017-08-10T07:11:26.565Z,5
2017-08-10T07:12:26.559Z,5
2017-08-10T07:13:26.550Z,5
2017-08-10T07:14:26.961Z,5
2017-08-10T07:15:26.859Z,5
2017-08-10T07:16:26.950Z,5
2017-08-10T07:17:26.544Z,5
2017-08-10T07:18:26.537Z,5
2017-08-10T07:19:26.526Z,5
2017-08-10T07:20:26.937Z,5
2017-08-10T07:21:26.531Z,10
2017-08-10T07:22:26.517Z,5
2017-08-10T07:23:26.513Z,5
2017-08-10T07:24:26.828Z,5
2017-08-10T07:25:26.513Z,5
2017-08-10T07:26:26.508Z,10
2017-08-10T07:27:26.507Z,10
2017-08-10T07:28:26.496Z,10
2017-08-10T07:29:26.498Z,10
2017-08-10T07:30:26.803Z,10
2017-08-10T07:31:26.490Z,10
2017-08-10T07:32:26.794Z,10
2017-08-10T07:33:26.789Z,10
2017-08-10T07:34:26.476Z,10
2017-08-10T07:35:26.162Z,10
2017-08-10T07:36:26.778Z,10
2017-08-10T07:37:26.771Z,10
2017-08-10T07:38:26.765Z,10
2017-08-10T07:39:26.563Z,15
2017-08-10T07:40:26.454Z,15
2017-08-10T07:41:26.554Z,15
2017-08-10T07:42:26.449Z,15
2017-08-10T07:43:26.442Z,20
2017-08-10T07:44:26.741Z,20
2017-08-10T07:45:26.433Z,20
2017-08-10T07:46:26.436Z,20
2017-08-10T07:47:26.431Z,20
2017-08-10T07:48:26.430Z,20
2017-08-10T07:49:26.726Z,20
2017-08-10T07:50:26.730Z,15
2017-08-10T07:51:26.409Z,15
2017-08-10T07:52:26.436Z,10
2017-08-10T07:53:26.723Z,10
2017-08-10T07:54:26.715Z,10
2017-08-10T07:55:26.402Z,15
2017-08-10T07:56:26.707Z,10
2017-08-10T07:57:26.701Z,10
2017-08-10T07:58:26.703Z,10
2017-08-10T07:59:26.489Z,10
2017-08-10T08:00:26.386Z,10
2017-08-10T08:01:26.378Z,10
2017-08-10T08:02:26.683Z,10
2017-08-10T08:03:26.782Z,10
2017-08-10T08:04:26.673Z,10
2017-08-10T08:05:26.677Z,10
2017-08-10T08:06:26.365Z,5
2017-08-10T08:07:26.366Z,5
2017-08-10T08:08:26.363Z,5
2017-08-10T08:09:26.357Z,5
2017-08-10T08:10:26.653Z,10
2017-08-10T08:11:26.351Z,10
2017-08-10T08:12:26.339Z,15
2017-08-10T08:13:26.434Z,20
2017-08-10T08:14:26.333Z,20
2017-08-10T08:15:26.641Z,15
2017-08-10T08:16:26.429Z,15
2017-08-10T08:17:26.626Z,15
2017-08-10T08:18:26.650Z,10
2017-08-10T08:19:26.622Z,5
2017-08-10T08:20:26.620Z,10
2017-08-10T08:21:26.356Z,10
2017-08-10T08:22:26.299Z,15
2017-08-10T08:23:26.300Z,15
2017-08-10T08:24:26.605Z,15
2017-08-10T08:25:26.599Z,15
2017-08-10T08:26:26.593Z,15
2017-08-10T08:27:26.593Z,15
2017-08-10T08:28:26.691Z,10
2017-08-10T08:29:26.594Z,10
2017-08-10T08:30:26.686Z,10
2017-08-10T08:31:26.578Z,15
2017-08-10T08:32:26.274Z,15
2017-08-10T08:33:26.265Z,15
2017-08-10T08:34:26.266Z,20
2017-08-10T08:35:26.662Z,25
2017-08-10T08:36:26.523Z,25
2017-08-10T08:37:26.254Z,25
2017-08-10T08:38:26.249Z,25
2017-08-10T08:39:26.549Z,20
2017-08-10T08:40:25.939Z,20
2017-08-10T08:41:26.234Z,15
2017-08-10T08:42:26.340Z,15
2017-08-10T08:43:26.226Z,15
2017-08-10T08:44:26.633Z,15
2017-08-10T08:45:26.226Z,15
2017-08-10T08:46:26.670Z,15
2017-08-10T08:47:26.631Z,15
2017-08-10T08:48:26.519Z,20
2017-08-10T08:49:26.201Z,25
2017-08-10T08:50:26.521Z,25
2017-08-10T08:51:26.196Z,25
2017-08-10T08:52:25.898Z,25
2017-08-10T08:53:26.666Z,25
2017-08-10T08:54:26.186Z,20
2017-08-10T08:55:26.493Z,15
2017-08-10T08:56:26.492Z,15
2017-08-10T08:57:26.184Z,15
2017-08-10T08:58:26.170Z,10
2017-08-10T08:59:26.165Z,10
2017-08-10T09:00:26.167Z,20
2017-08-10T09:01:26.467Z,20
2017-08-10T09:02:25.854Z,20
2017-08-10T09:03:26.259Z,25
2017-08-10T09:04:26.154Z,20
2017-08-10T09:05:26.606Z,20
2017-08-10T09:06:26.145Z,10
2017-08-10T09:07:26.447Z,10
2017-08-10T09:08:26.546Z,10
2017-08-10T09:09:26.132Z,5
2017-08-10T09:10:26.444Z,10
2017-08-10T09:11:26.132Z,10
2017-08-10T09:12:26.128Z,10
2017-08-10T09:13:26.112Z,15
2017-08-10T09:14:26.422Z,20
2017-08-10T09:15:26.529Z,25
2017-08-10T09:16:26.421Z,25
2017-08-10T09:17:26.100Z,25
2017-08-10T09:18:26.100Z,20
2017-08-10T09:19:26.093Z,20
2017-08-10T09:20:26.506Z,15
2017-08-10T09:21:26.090Z,15
2017-08-10T09:22:26.083Z,15
2017-08-10T09:23:26.390Z,15
2017-08-10T09:24:26.393Z,15
2017-08-10T09:25:26.077Z,20
2017-08-10T09:26:26.535Z,25
2017-08-10T09:27:26.376Z,25
2017-08-10T09:28:26.373Z,25
2017-08-10T09:29:26.061Z,25
2017-08-10T09:30:26.365Z,25
2017-08-10T09:31:26.457Z,20
2017-08-10T09:32:26.360Z,15
2017-08-10T09:33:26.048Z,20
2017-08-10T09:34:26.353Z,20
2017-08-10T09:35:26.038Z,20
2017-08-10T09:36:26.342Z,20
2017-08-10T09:37:26.338Z,20
2017-08-10T09:38:26.427Z,20
2017-08-10T09:39:26.330Z,20
2017-08-10T09:40:25.830Z,20
2017-08-10T09:41:26.017Z,20
2017-08-10T09:42:26.327Z,20
2017-08-10T09:43:26.318Z,20
2017-08-10T09:44:26.420Z,20
2017-08-10T09:45:26.308Z,25
2017-08-10T09:46:25.994Z,25
2017-08-10T09:47:26.308Z,25
2017-08-10T09:48:26.298Z,25
2017-08-10T09:49:26.290Z,25
2017-08-10T09:50:25.688Z,25
2017-08-10T09:51:26.289Z,25
2017-08-10T09:52:26.074Z,25
2017-08-10T09:53:25.966Z,20
2017-08-10T09:54:26.293Z,25
2017-08-10T09:55:26.116Z,20
2017-08-10T09:56:25.963Z,20
2017-08-10T09:57:26.265Z,20
2017-08-10T09:58:26.072Z,20
2017-08-10T09:59:26.358Z,25
2017-08-10T10:00:26.254Z,20
2017-08-10T10:01:26.245Z,25
2017-08-10T10:02:26.255Z,25
2017-08-10T10:03:25.934Z,25
2017-08-10T10:04:26.591Z,20
2017-08-10T10:05:26.230Z,20
2017-08-10T10:06:25.937Z,20
2017-08-10T10:07:25.927Z,20
2017-08-10T10:08:26.224Z,20
2017-08-10T10:09:25.931Z,20
2017-08-10T10:10:26.222Z,20
2017-08-10T10:11:26.011Z,20
2017-08-10T10:12:25.594Z,20
2017-08-10T10:13:26.248Z,25
2017-08-10T10:14:26.210Z,25
2017-08-10T10:15:25.278Z,25
2017-08-10T10:16:26.039Z,20
2017-08-10T10:17:26.187Z,20
2017-08-10T10:18:25.885Z,20
2017-08-10T10:19:25.561Z,20
2017-08-10T10:20:25.353Z,20
2017-08-10T10:21:25.562Z,20
2017-08-10T10:22:25.863Z,20
2017-08-10T10:23:25.866Z,20
2017-08-10T10:24:25.849Z,20
2017-08-10T10:25:25.858Z,20
2017-08-10T10:26:25.944Z,25
2017-08-10T10:27:26.148Z,25
2017-08-10T10:28:26.152Z,25
2017-08-10T10:29:25.938Z,25
2017-08-10T10:30:25.840Z,30
2017-08-10T10:31:25.845Z,30
2017-08-10T10:32:25.516Z,25
2017-08-10T10:33:26.126Z,25
2017-08-10T10:34:26.136Z,20
2017-08-10T10:35:26.124Z,25
2017-08-10T10:36:26.221Z,25
2017-08-10T10:37:26.209Z,25
2017-08-10T10:38:26.112Z,25
2017-08-10T10:39:25.905Z,25
2017-08-10T10:40:26.101Z,30
2017-08-10T10:41:25.795Z,30
2017-08-10T10:42:25.482Z,30
2017-08-10T10:43:25.786Z,30
2017-08-10T10:44:25.787Z,30
2017-08-10T10:45:25.777Z,35
2017-08-10T10:46:25.922Z,30
2017-08-10T10:47:25.769Z,30
2017-08-10T10:48:26.068Z,30
2017-08-10T10:49:25.559Z,25
2017-08-10T10:50:25.865Z,25
2017-08-10T10:51:25.439Z,30
2017-08-10T10:52:25.446Z,30
2017-08-10T10:53:25.753Z,30
2017-08-10T10:54:25.747Z,25
2017-08-10T10:55:25.740Z,25
2017-08-10T10:56:25.437Z,25
2017-08-10T10:57:26.057Z,25
2017-08-10T10:58:26.034Z,25
2017-08-10T10:59:25.428Z,25
2017-08-10T11:00:26.033Z,25
2017-08-10T11:01:25.719Z,20
2017-08-10T11:02:26.022Z,20
2017-08-10T11:03:26.018Z,20
2017-08-10T11:04:25.709Z,25
2017-08-10T11:05:25.395Z,20
2017-08-10T11:06:26.017Z,20
2017-08-10T11:07:25.999Z,25
2017-08-10T11:08:25.389Z,25
2017-08-10T11:09:25.375Z,25
2017-08-10T11:10:25.375Z,25
2017-08-10T11:11:25.375Z,25
2017-08-10T11:12:26.087Z,30
2017-08-10T11:13:25.371Z,30
2017-08-10T11:14:26.012Z,35
2017-08-10T11:15:25.963Z,35
2017-08-10T11:16:25.965Z,30
2017-08-10T11:17:25.976Z,30
2017-08-10T11:18:25.666Z,25
2017-08-10T11:19:25.654Z,20
2017-08-10T11:20:26.052Z,20
2017-08-10T11:21:25.643Z,20
2017-08-10T11:22:26.053Z,25
2017-08-10T11:23:25.945Z,25
2017-08-10T11:24:25.629Z,30
2017-08-10T11:25:25.015Z,25
2017-08-10T11:26:25.775Z,25
2017-08-10T11:27:25.627Z,20
2017-08-10T11:28:25.609Z,20
2017-08-10T11:29:25.609Z,25
2017-08-10T11:30:25.925Z,25
2017-08-10T11:31:25.908Z,30
2017-08-10T11:32:25.918Z,35
2017-08-10T11:33:25.695Z,40
2017-08-10T11:34:25.896Z,35
2017-08-10T11:35:25.891Z,30
2017-08-10T11:36:25.730Z,25
2017-08-10T11:37:25.887Z,25
2017-08-10T11:38:25.591Z,30
2017-08-10T11:39:25.670Z,30
2017-08-10T11:40:25.902Z,30
2017-08-10T11:41:25.871Z,30
2017-08-10T11:42:25.867Z,25
2017-08-10T11:43:25.558Z,25
2017-08-10T11:44:25.915Z,25
2017-08-10T11:45:25.864Z,25
2017-08-10T11:46:25.270Z,30
2017-08-10T11:47:25.945Z,35
2017-08-10T11:48:25.541Z,35
2017-08-10T11:49:25.843Z,30
2017-08-10T11:50:25.934Z,30
2017-08-10T11:51:25.225Z,25
2017-08-10T11:52:25.525Z,25
2017-08-10T11:53:25.534Z,25
2017-08-10T11:54:25.832Z,30
2017-08-10T11:55:25.822Z,30
2017-08-10T11:56:25.816Z,25
2017-08-10T11:57:25.508Z,25
2017-08-10T11:58:25.809Z,25
2017-08-10T11:59:25.509Z,25
2017-08-10T12:00:25.902Z,30
2017-08-10T12:01:25.484Z,25
2017-08-10T12:02:25.793Z,25
2017-08-10T12:03:25.488Z,20
2017-08-10T12:04:25.576Z,20
2017-08-10T12:05:25.774Z,20
2017-08-10T12:06:25.578Z,20
2017-08-10T12:07:25.472Z,15
2017-08-10T12:08:25.463Z,20
2017-08-10T12:09:25.484Z,15
2017-08-10T12:10:25.469Z,15
2017-08-10T12:11:25.911Z,15
2017-08-10T12:12:25.756Z,15
2017-08-10T12:13:25.446Z,15
2017-08-10T12:14:25.455Z,15
2017-08-10T12:15:25.538Z,15
2017-08-10T12:16:25.742Z,15
2017-08-10T12:17:25.526Z,15
2017-08-10T12:18:25.730Z,15
2017-08-10T12:19:25.416Z,15
2017-08-10T12:20:25.514Z,15
2017-08-10T12:21:24.800Z,15
2017-08-10T12:22:25.507Z,15
2017-08-10T12:23:25.813Z,20
2017-08-10T12:24:25.717Z,20
2017-08-10T12:25:25.507Z,25
2017-08-10T12:26:25.798Z,30
2017-08-10T12:27:25.788Z,25
2017-08-10T12:28:25.686Z,25
2017-08-10T12:29:25.684Z,25
2017-08-10T12:30:25.682Z,20
2017-08-10T12:31:25.682Z,20
2017-08-10T12:32:25.674Z,20
2017-08-10T12:33:25.670Z,20
2017-08-10T12:34:25.364Z,20
2017-08-10T12:35:25.670Z,20
2017-08-10T12:36:25.761Z,20
2017-08-10T12:37:25.758Z,20
2017-08-10T12:38:25.745Z,20
2017-08-10T12:39:25.651Z,20
2017-08-10T12:40:25.642Z,20
2017-08-10T12:41:25.341Z,20
2017-08-10T12:42:25.739Z,15
2017-08-10T12:43:25.648Z,15
2017-08-10T12:44:25.320Z,15
2017-08-10T12:45:25.629Z,15
2017-08-10T12:46:25.421Z,15
2017-08-10T12:47:25.618Z,15
2017-08-10T12:48:25.305Z,15
2017-08-10T12:49:25.308Z,15
2017-08-10T12:50:25.308Z,15
2017-08-10T12:51:25.308Z,15
2017-08-10T12:52:25.593Z,15
2017-08-10T12:53:25.590Z,15
2017-08-10T12:54:25.604Z,15
2017-08-10T12:55:25.594Z,10
2017-08-10T12:56:25.279Z,10
2017-08-10T12:57:25.269Z,15
2017-08-10T12:58:25.575Z,15
2017-08-10T12:59:25.570Z,15
2017-08-10T13:00:25.568Z,15
2017-08-10T13:01:25.562Z,15
2017-08-10T13:02:25.255Z,15
2017-08-10T13:03:25.657Z,15
2017-08-10T13:04:25.551Z,20
2017-08-10T13:05:25.546Z,20
2017-08-10T13:06:25.646Z,20
2017-08-10T13:07:24.925Z,20
2017-08-10T13:08:25.239Z,15
2017-08-10T13:09:25.686Z,15
2017-08-10T13:10:25.521Z,15
2017-08-10T13:11:25.519Z,15
2017-08-10T13:12:25.211Z,15
2017-08-10T13:13:25.507Z,20
2017-08-10T13:14:25.312Z,20
2017-08-10T13:15:25.509Z,20
2017-08-10T13:16:25.195Z,25
2017-08-10T13:17:25.191Z,25
2017-08-10T13:18:25.599Z,25
2017-08-10T13:19:25.490Z,25
2017-08-10T13:20:25.278Z,25
2017-08-10T13:21:24.883Z,25
2017-08-10T13:22:25.482Z,20
2017-08-10T13:23:25.576Z,20
2017-08-10T13:24:24.958Z,20
2017-08-10T13:25:25.173Z,20
2017-08-10T13:26:25.156Z,20
2017-08-10T13:27:25.469Z,25
2017-08-10T13:28:25.451Z,25
2017-08-10T13:29:25.150Z,25
2017-08-10T13:30:25.442Z,25
2017-08-10T13:31:25.445Z,25
2017-08-10T13:32:24.825Z,25
2017-08-10T13:33:25.229Z,25
2017-08-10T13:34:25.432Z,20
2017-08-10T13:35:25.427Z,20
2017-08-10T13:36:25.422Z,20
2017-08-10T13:37:24.813Z,20
2017-08-10T13:38:25.417Z,20
2017-08-10T13:39:24.797Z,20
2017-08-10T13:40:24.801Z,20
2017-08-10T13:41:25.508Z,20
2017-08-10T13:42:25.497Z,15
2017-08-10T13:43:25.494Z,15
2017-08-10T13:44:25.398Z,15
2017-08-10T13:45:25.382Z,20
2017-08-10T13:46:24.768Z,20
2017-08-10T13:47:25.484Z,20
2017-08-10T13:48:25.375Z,20
2017-08-10T13:49:25.086Z,15
2017-08-10T13:50:25.362Z,15
2017-08-10T13:51:25.466Z,15
2017-08-10T13:52:25.462Z,10
2017-08-10T13:53:25.453Z,10
2017-08-10T13:54:25.045Z,10
2017-08-10T13:55:25.445Z,15
2017-08-10T13:56:25.134Z,15
2017-08-10T13:57:25.336Z,15
2017-08-10T13:58:25.342Z,15
2017-08-10T13:59:24.519Z,15
2017-08-10T14:00:25.332Z,15
2017-08-10T14:01:25.325Z,15
2017-08-10T14:02:25.419Z,15
2017-08-10T14:03:25.018Z,15
2017-08-10T14:04:25.130Z,15
2017-08-10T14:05:25.002Z,15
2017-08-10T14:06:25.308Z,15
2017-08-10T14:07:25.319Z,15
2017-08-10T14:08:25.298Z,15
2017-08-10T14:09:25.391Z,15
2017-08-10T14:10:25.280Z,10
2017-08-10T14:11:24.980Z,10
2017-08-10T14:12:24.978Z,10
2017-08-10T14:13:25.276Z,10
2017-08-10T14:14:25.279Z,10
2017-08-10T14:15:25.394Z,10
2017-08-10T14:16:24.963Z,10
2017-08-10T14:17:25.050Z,10
2017-08-10T14:18:24.948Z,10
2017-08-10T14:19:25.245Z,10
2017-08-10T14:20:24.947Z,10
2017-08-10T14:21:25.238Z,15
2017-08-10T14:22:24.934Z,15
2017-08-10T14:23:25.027Z,10
2017-08-10T14:24:24.932Z,15
2017-08-10T14:25:25.225Z,15
2017-08-10T14:26:25.230Z,15
2017-08-10T14:27:24.896Z,15
2017-08-10T14:28:25.200Z,15
2017-08-10T14:29:25.206Z,15
2017-08-10T14:30:24.889Z,15